createdAt,value
2017-05-09T00:01:56.239Z,75.50
2017-05-09T00:04:24.199Z,72.46
2017-05-09T00:06:51.731Z,59.86
2017-05-09T00:09:19.654Z,89.50
2017-05-09T00:11:47.610Z,79.28
2017-05-09T00:14:15.544Z,90.48
2017-05-09T00:16:43.471Z,96.16
2017-05-09T00:19:11.427Z,104.28
2017-05-09T00:21:39.363Z,71.66
2017-05-09T00:24:07.299Z,100.56
2017-05-09T00:26:35.628Z,89.28
2017-05-09T00:29:03.564Z,68.96
2017-05-09T00:31:31.488Z,76.88
2017-05-09T00:33:59.444Z,78.70
2017-05-09T00:36:27.372Z,71.30
2017-05-09T00:38:55.310Z,76.54
2017-05-09T00:41:23.647Z,87.26
2017-05-09T00:43:51.314Z,84.46
2017-05-09T00:46:19.246Z,75.24
2017-05-09T00:48:46.807Z,79.12
2017-05-09T00:51:14.743Z,79.98
2017-05-09T00:53:42.668Z,74.56
2017-05-09T00:56:10.634Z,96.97
2017-05-09T00:58:38.556Z,95.84
2017-05-09T01:01:06.091Z,94.42
2017-05-09T01:03:34.045Z,82.08
2017-05-09T01:06:01.972Z,79.20
2017-05-09T01:08:30.271Z,81.22
2017-05-09T01:10:57.841Z,75.58
2017-05-09T01:13:25.768Z,88.66
2017-05-09T01:15:53.692Z,81.48
2017-05-09T01:18:21.643Z,85.94
2017-05-09T01:20:49.538Z,89.72
2017-05-09T01:23:17.504Z,87.94
2017-05-09T01:25:45.466Z,75.46
2017-05-09T01:28:12.998Z,90.38
2017-05-09T01:30:40.923Z,76.14
2017-05-09T01:33:08.992Z,87.82
2017-05-09T01:35:36.931Z,79.08
2017-05-09T01:38:04.856Z,90.38
2017-05-09T01:40:32.816Z,85.40
2017-05-09T01:43:00.739Z,82.60
2017-05-09T01:45:28.668Z,80.88
2017-05-09T01:47:56.614Z,94.76
2017-05-09T01:50:24.547Z,91.82
2017-05-09T01:52:52.474Z,92.66
2017-05-09T01:55:20.423Z,79.14
2017-05-09T01:57:48.353Z,85.20
2017-05-09T02:00:16.283Z,88.56
2017-05-09T02:02:44.688Z,83.50
2017-05-09T02:05:12.219Z,79.86
2017-05-09T02:07:40.165Z,82.66
2017-05-09T02:10:08.116Z,80.18
2017-05-09T02:12:35.652Z,97.16
2017-05-09T02:15:03.580Z,101.62
2017-05-09T02:17:31.675Z,69.46
2017-05-09T02:19:59.982Z,86.38
2017-05-09T02:22:27.915Z,77.86
2017-05-09T02:24:55.875Z,77.58
2017-05-09T02:27:23.808Z,85.88
2017-05-09T02:29:51.739Z,82.78
2017-05-09T02:32:20.077Z,86.24
2017-05-09T02:34:48.003Z,89.70
2017-05-09T02:37:15.945Z,78.04
2017-05-09T02:39:43.897Z,78.02
2017-05-09T02:42:11.827Z,89.14
2017-05-09T02:44:39.751Z,86.30
2017-05-09T02:47:07.715Z,86.26
2017-05-09T02:49:35.644Z,90.22
2017-05-09T02:52:03.576Z,102.08
2017-05-09T02:54:32.103Z,91.08
2017-05-09T02:56:59.612Z,75.70
2017-05-09T02:59:27.909Z,89.18
2017-05-09T03:01:55.860Z,86.84
2017-05-09T03:04:24.165Z,81.48
2017-05-09T03:06:52.129Z,81.64
2017-05-09T03:09:20.443Z,93.12
2017-05-09T03:11:48.377Z,91.60
2017-05-09T03:14:16.312Z,105.16
2017-05-09T03:16:44.267Z,105.94
2017-05-09T03:19:12.216Z,96.60
2017-05-09T03:21:40.141Z,89.46
2017-05-09T03:24:08.468Z,91.98
2017-05-09T03:26:36.403Z,75.30
2017-05-09T03:29:04.718Z,105.88
2017-05-09T03:31:32.671Z,89.38
2017-05-09T03:34:00.628Z,84.10
2017-05-09T03:36:28.569Z,102.48
2017-05-09T03:38:56.531Z,80.70
2017-05-09T03:41:24.459Z,78.50
2017-05-09T03:43:51.997Z,86.80
2017-05-09T03:46:19.955Z,92.48
2017-05-09T03:48:47.500Z,108.58
2017-05-09T03:51:15.037Z,96.94
2017-05-09T03:53:43.010Z,80.76
2017-05-09T03:56:10.940Z,99.14
2017-05-09T03:58:38.476Z,88.08
2017-05-09T04:01:06.035Z,96.44
2017-05-09T04:03:34.339Z,92.40
2017-05-09T04:06:02.278Z,103.56
2017-05-09T04:08:30.235Z,81.42
2017-05-09T04:10:58.179Z,87.54
2017-05-09T04:13:26.107Z,102.16
2017-05-09T04:15:54.070Z,88.84
2017-05-09T04:18:22.371Z,84.96
2017-05-09T04:20:50.300Z,117.84
2017-05-09T04:23:18.636Z,83.82
2017-05-09T04:25:46.567Z,88.54
2017-05-09T04:28:14.508Z,87.76
2017-05-09T04:30:42.072Z,87.18
2017-05-09T04:33:10.000Z,91.94
2017-05-09T04:35:37.933Z,83.22
2017-05-09T04:38:06.263Z,87.60
2017-05-09T04:40:34.207Z,79.45
2017-05-09T04:43:02.137Z,95.54
2017-05-09T04:45:30.493Z,86.27
2017-05-09T04:47:58.436Z,86.88
2017-05-09T04:50:26.382Z,80.86
2017-05-09T04:52:54.333Z,98.14
2017-05-09T04:55:22.632Z,75.46
2017-05-09T04:57:50.572Z,87.38
2017-05-09T05:00:18.519Z,92.56
2017-05-09T05:02:46.455Z,80.37
2017-05-09T05:05:14.400Z,80.94
2017-05-09T05:07:42.745Z,77.16
2017-05-09T05:10:10.689Z,73.36
2017-05-09T05:12:38.221Z,93.88
2017-05-09T05:15:06.182Z,67.22
2017-05-09T05:17:33.744Z,83.90
2017-05-09T05:20:01.677Z,87.48
2017-05-09T05:22:29.649Z,92.26
2017-05-09T05:24:57.572Z,72.50
2017-05-09T05:27:25.509Z,73.58
2017-05-09T05:29:53.832Z,84.14
2017-05-09T05:32:21.369Z,87.00
2017-05-09T05:34:49.304Z,74.84
2017-05-09T05:37:17.264Z,62.64
2017-05-09T05:39:45.274Z,53.70
2017-05-09T05:42:13.568Z,67.64
2017-05-09T05:44:41.515Z,67.30
2017-05-09T05:47:09.815Z,60.94
2017-05-09T05:49:37.748Z,66.10
2017-05-09T05:52:05.707Z,63.24
2017-05-09T05:54:33.631Z,66.64
2017-05-09T05:57:01.171Z,62.62
2017-05-09T05:59:29.123Z,55.76
2017-05-09T06:01:57.431Z,55.14
2017-05-09T06:04:25.361Z,68.10
2017-05-09T06:06:53.316Z,60.32
2017-05-09T06:09:21.247Z,57.46
2017-05-09T06:11:49.171Z,56.96
2017-05-09T06:14:17.132Z,49.98
2017-05-09T06:16:45.025Z,57.02
2017-05-09T06:19:13.032Z,54.86
2017-05-09T06:21:40.964Z,58.14
2017-05-09T06:24:09.268Z,62.12
2017-05-09T06:26:37.220Z,56.18
2017-05-09T06:29:05.524Z,45.86
2017-05-09T06:31:33.459Z,39.80
2017-05-09T06:34:01.792Z,41.26
2017-05-09T06:36:29.719Z,40.54
2017-05-09T06:38:57.265Z,31.84
2017-05-09T06:41:24.824Z,22.44
2017-05-09T06:43:52.351Z,33.28
2017-05-09T06:46:20.285Z,30.70
2017-05-09T06:48:48.236Z,32.14
2017-05-09T06:51:16.535Z,33.56
2017-05-09T06:53:44.490Z,30.74
2017-05-09T06:56:12.040Z,34.48
2017-05-09T06:58:39.978Z,34.30
2017-05-09T07:01:07.939Z,35.76
2017-05-09T07:03:35.878Z,30.78
2017-05-09T07:06:03.811Z,36.70
2017-05-09T07:08:32.144Z,26.30
2017-05-09T07:10:59.690Z,41.44
2017-05-09T07:13:27.626Z,33.18
2017-05-09T07:15:55.952Z,31.10
2017-05-09T07:18:23.881Z,38.60
2017-05-09T07:20:51.424Z,30.20
2017-05-09T07:23:19.381Z,39.32
2017-05-09T07:25:47.343Z,34.34
2017-05-09T07:28:15.271Z,29.92
2017-05-09T07:30:42.839Z,36.40
2017-05-09T07:33:10.768Z,35.20
2017-05-09T07:35:39.085Z,34.84
2017-05-09T07:38:07.047Z,36.18
2017-05-09T07:40:34.982Z,31.44
2017-05-09T07:43:02.921Z,33.62
2017-05-09T07:45:30.884Z,32.32
2017-05-09T07:47:58.820Z,27.36
2017-05-09T07:50:26.780Z,22.54
2017-05-09T07:52:55.129Z,38.52
2017-05-09T07:55:23.060Z,33.42
2017-05-09T07:57:50.992Z,25.38
2017-05-09T08:00:19.327Z,26.64
2017-05-09T08:02:47.267Z,28.16
2017-05-09T08:05:15.208Z,30.06
2017-05-09T08:07:43.543Z,23.60
2017-05-09T08:10:11.484Z,29.26
2017-05-09T08:12:39.031Z,31.70
2017-05-09T08:15:06.983Z,25.10
2017-05-09T08:17:35.292Z,24.44
2017-05-09T08:20:03.223Z,19.82
2017-05-09T08:22:31.179Z,18.02
2017-05-09T08:24:59.120Z,17.68
2017-05-09T08:27:26.664Z,20.48
2017-05-09T08:29:54.626Z,28.26
2017-05-09T08:32:22.552Z,22.70
2017-05-09T08:34:50.513Z,18.70
2017-05-09T08:37:18.449Z,17.20
2017-05-09T08:39:46.380Z,20.46
2017-05-09T08:42:14.346Z,20.56
2017-05-09T08:44:42.285Z,25.08
2017-05-09T08:47:10.228Z,19.80
2017-05-09T08:49:38.184Z,18.86
2017-05-09T08:52:06.128Z,22.02
2017-05-09T08:54:34.447Z,19.86
2017-05-09T08:57:02.405Z,14.40
2017-05-09T08:59:30.401Z,16.16
2017-05-09T09:01:58.340Z,18.24
2017-05-09T09:04:25.913Z,17.90
2017-05-09T09:06:53.844Z,19.66
2017-05-09T09:09:21.775Z,16.82
2017-05-09T09:11:49.346Z,18.76
2017-05-09T09:14:17.279Z,15.64
2017-05-09T09:16:45.219Z,18.74
2017-05-09T09:19:13.551Z,17.94
2017-05-09T09:21:41.492Z,16.64
2017-05-09T09:24:09.033Z,25.72
2017-05-09T09:26:37.355Z,18.26
2017-05-09T09:29:04.890Z,17.22
2017-05-09T09:31:32.837Z,22.04
2017-05-09T09:34:01.197Z,15.98
2017-05-09T09:36:29.128Z,22.56
2017-05-09T09:38:57.063Z,14.02
2017-05-09T09:41:25.400Z,15.84
2017-05-09T09:43:53.333Z,16.56
2017-05-09T09:46:21.263Z,19.58
2017-05-09T09:48:48.822Z,18.52
2017-05-09T09:51:16.781Z,16.94
2017-05-09T09:53:44.726Z,18.38
2017-05-09T09:56:12.683Z,21.04
2017-05-09T09:58:40.228Z,18.54
2017-05-09T10:01:08.161Z,16.54
2017-05-09T10:03:36.156Z,20.42
2017-05-09T10:06:04.448Z,15.12
2017-05-09T10:08:32.379Z,16.32
2017-05-09T10:11:00.335Z,14.48
2017-05-09T10:13:28.272Z,16.22
2017-05-09T10:15:56.207Z,16.74
2017-05-09T10:18:24.540Z,17.20
2017-05-09T10:20:52.471Z,16.12
2017-05-09T10:23:20.776Z,16.00
2017-05-09T10:25:48.735Z,23.56
2017-05-09T10:28:16.702Z,19.90
2017-05-09T10:30:44.983Z,22.36
2017-05-09T10:33:12.944Z,20.22
2017-05-09T10:35:40.882Z,25.56
2017-05-09T10:38:08.815Z,29.92
2017-05-09T10:40:36.784Z,24.50
2017-05-09T10:43:04.682Z,20.84
2017-05-09T10:45:32.660Z,22.02
2017-05-09T10:48:00.641Z,18.60
2017-05-09T10:50:28.961Z,18.16
2017-05-09T10:52:56.897Z,22.36
2017-05-09T10:55:24.465Z,16.64
2017-05-09T10:57:52.801Z,19.80
2017-05-09T11:00:20.740Z,16.66
2017-05-09T11:02:48.691Z,18.82
2017-05-09T11:05:16.619Z,14.16
2017-05-09T11:07:44.548Z,10.54
2017-05-09T11:10:12.508Z,13.32
2017-05-09T11:12:40.438Z,12.98
2017-05-09T11:15:08.380Z,18.24
2017-05-09T11:17:36.378Z,19.04
2017-05-09T11:20:04.309Z,19.18
2017-05-09T11:22:32.245Z,20.44
2017-05-09T11:25:00.222Z,14.26
2017-05-09T11:27:28.148Z,17.16
2017-05-09T11:29:55.693Z,12.06
2017-05-09T11:32:23.652Z,19.08
2017-05-09T11:34:51.580Z,13.12
2017-05-09T11:37:19.888Z,18.40
2017-05-09T11:39:47.845Z,14.88
2017-05-09T11:42:15.775Z,14.66
2017-05-09T11:44:43.708Z,14.32
2017-05-09T11:47:11.667Z,13.68
2017-05-09T11:49:39.603Z,16.58
2017-05-09T11:52:08.128Z,13.64
2017-05-09T11:54:35.694Z,13.46
2017-05-09T11:57:03.631Z,19.48
2017-05-09T11:59:31.928Z,18.52
2017-05-09T12:01:59.884Z,14.62
2017-05-09T12:04:27.451Z,18.40
2017-05-09T12:06:54.999Z,15.90
2017-05-09T12:09:23.330Z,19.54
2017-05-09T12:11:51.310Z,21.66
2017-05-09T12:14:19.268Z,18.34
2017-05-09T12:16:47.200Z,19.64
2017-05-09T12:19:15.156Z,19.18
2017-05-09T12:21:43.097Z,17.64
2017-05-09T12:24:11.032Z,18.00
2017-05-09T12:26:38.992Z,16.50
2017-05-09T12:29:06.918Z,13.54
2017-05-09T12:31:35.249Z,17.94
2017-05-09T12:34:03.183Z,19.06
2017-05-09T12:36:31.120Z,14.98
2017-05-09T12:38:59.075Z,21.96
2017-05-09T12:41:27.012Z,16.74
2017-05-09T12:43:54.948Z,15.34
2017-05-09T12:46:23.280Z,17.66
2017-05-09T12:48:51.240Z,14.66
2017-05-09T12:51:19.176Z,16.54
2017-05-09T12:53:47.131Z,16.18
2017-05-09T12:56:15.454Z,17.24
2017-05-09T12:58:43.398Z,18.12
2017-05-09T13:01:11.723Z,14.08
2017-05-09T13:03:39.660Z,19.12
2017-05-09T13:06:07.195Z,17.18
2017-05-09T13:08:35.520Z,12.60
2017-05-09T13:11:03.458Z,11.16
2017-05-09T13:13:30.991Z,13.66
2017-05-09T13:15:58.951Z,14.12
2017-05-09T13:18:26.487Z,13.90
2017-05-09T13:20:54.431Z,16.34
2017-05-09T13:23:22.393Z,14.48
2017-05-09T13:25:50.340Z,11.30
2017-05-09T13:28:18.260Z,16.62
2017-05-09T13:30:46.225Z,12.66
2017-05-09T13:33:14.162Z,15.36
2017-05-09T13:35:42.471Z,14.58
2017-05-09T13:38:10.427Z,20.10
2017-05-09T13:40:38.355Z,16.40
2017-05-09T13:43:06.292Z,14.48
2017-05-09T13:45:34.248Z,24.20
2017-05-09T13:48:02.187Z,14.94
2017-05-09T13:50:30.498Z,17.84
2017-05-09T13:52:58.461Z,16.68
2017-05-09T13:55:26.024Z,16.44
2017-05-09T13:57:53.567Z,15.54
2017-05-09T14:00:21.505Z,14.44
2017-05-09T14:02:49.464Z,17.68
2017-05-09T14:05:17.396Z,19.10
2017-05-09T14:07:44.937Z,18.20
2017-05-09T14:10:12.890Z,15.66
2017-05-09T14:12:41.200Z,23.66
2017-05-09T14:15:08.745Z,17.50
2017-05-09T14:17:36.704Z,13.84
2017-05-09T14:20:04.264Z,14.38
2017-05-09T14:22:31.809Z,15.18
2017-05-09T14:24:59.355Z,17.50
2017-05-09T14:27:26.916Z,12.36
2017-05-09T14:29:54.852Z,18.62
2017-05-09T14:32:22.775Z,9.16
2017-05-09T14:34:50.372Z,12.02
2017-05-09T14:37:18.302Z,8.24
2017-05-09T14:39:45.851Z,10.40
2017-05-09T14:42:13.826Z,11.88
2017-05-09T14:44:41.755Z,10.04
2017-05-09T14:47:09.683Z,13.20
2017-05-09T14:49:38.019Z,14.42
2017-05-09T14:52:05.946Z,12.98
2017-05-09T14:54:33.875Z,14.76
2017-05-09T14:57:01.827Z,11.80
2017-05-09T14:59:29.761Z,12.52
2017-05-09T15:01:57.704Z,9.70
2017-05-09T15:04:25.260Z,11.70
2017-05-09T15:06:52.800Z,13.64
2017-05-09T15:09:20.732Z,11.58
2017-05-09T15:11:48.300Z,11.78
2017-05-09T15:14:16.227Z,15.64
2017-05-09T15:16:44.168Z,11.98
2017-05-09T15:19:12.119Z,12.78
2017-05-09T15:21:39.652Z,15.16
2017-05-09T15:24:07.583Z,13.28
2017-05-09T15:26:35.553Z,17.38
2017-05-09T15:29:03.484Z,12.28
2017-05-09T15:31:31.411Z,20.64
2017-05-09T15:33:59.747Z,13.12
2017-05-09T15:36:27.680Z,13.76
2017-05-09T15:38:55.615Z,13.78
2017-05-09T15:41:23.684Z,14.50
2017-05-09T15:43:51.219Z,11.54
2017-05-09T15:46:19.151Z,14.28
2017-05-09T15:48:46.711Z,14.08
2017-05-09T15:51:14.243Z,18.08
2017-05-09T15:53:42.546Z,11.24
2017-05-09T15:56:10.106Z,14.18
2017-05-09T15:58:38.403Z,13.44
2017-05-09T16:01:06.331Z,16.76
2017-05-09T16:03:34.659Z,13.26
2017-05-09T16:06:02.608Z,20.14
2017-05-09T16:08:30.535Z,13.56
2017-05-09T16:10:58.495Z,16.28
2017-05-09T16:13:26.428Z,12.42
2017-05-09T16:15:53.963Z,9.50
2017-05-09T16:18:22.283Z,10.58
2017-05-09T16:20:50.221Z,11.66
2017-05-09T16:23:18.525Z,13.72
2017-05-09T16:25:46.485Z,13.80
2017-05-09T16:28:14.420Z,13.94
2017-05-09T16:30:43.147Z,13.68
2017-05-09T16:33:10.711Z,12.30
2017-05-09T16:35:38.647Z,15.92
2017-05-09T16:38:06.949Z,12.84
2017-05-09T16:40:34.507Z,15.36
2017-05-09T16:43:02.445Z,15.20
2017-05-09T16:45:30.421Z,13.24
2017-05-09T16:47:58.364Z,14.48
2017-05-09T16:50:26.293Z,12.22
2017-05-09T16:52:53.888Z,14.28
2017-05-09T16:55:21.829Z,17.60
2017-05-09T16:57:49.777Z,18.04
2017-05-09T17:00:18.117Z,10.48
2017-05-09T17:02:46.060Z,13.24
2017-05-09T17:05:14.017Z,17.60
2017-05-09T17:07:41.972Z,14.46
2017-05-09T17:10:09.529Z,15.38
2017-05-09T17:12:37.456Z,12.78
2017-05-09T17:15:05.028Z,15.56
2017-05-09T17:17:32.964Z,16.68
2017-05-09T17:20:00.905Z,15.42
2017-05-09T17:22:28.464Z,23.66
2017-05-09T17:24:56.401Z,22.80
2017-05-09T17:27:24.383Z,14.92
2017-05-09T17:29:52.361Z,15.12
2017-05-09T17:32:21.037Z,20.50
2017-05-09T17:34:49.320Z,18.06
2017-05-09T17:37:17.759Z,17.66
2017-05-09T17:39:46.171Z,20.64
2017-05-09T17:42:14.478Z,14.56
2017-05-09T17:44:43.107Z,16.52
2017-05-09T17:47:11.641Z,15.68
2017-05-09T17:49:39.584Z,15.84
2017-05-09T17:52:08.503Z,17.90
2017-05-09T17:54:36.872Z,14.94
2017-05-09T17:57:05.229Z,13.14
2017-05-09T17:59:34.066Z,19.76
2017-05-09T18:02:02.677Z,20.02
2017-05-09T18:04:31.637Z,17.24
2017-05-09T18:07:00.715Z,23.36
2017-05-09T18:09:29.567Z,17.18
2017-05-09T18:11:58.815Z,17.66
2017-05-09T18:14:27.802Z,15.00
2017-05-09T18:16:56.809Z,18.70
2017-05-09T18:19:26.095Z,13.70
2017-05-09T18:21:55.128Z,15.20
2017-05-09T18:24:24.395Z,16.56
2017-05-09T18:26:53.418Z,17.22
2017-05-09T18:29:22.414Z,16.46
2017-05-09T18:31:51.247Z,16.40
2017-05-09T18:34:20.508Z,20.72
2017-05-09T18:36:50.127Z,20.76
2017-05-09T18:39:20.637Z,21.74
2017-05-09T18:41:49.986Z,24.94
2017-05-09T18:44:19.850Z,22.60
2017-05-09T18:46:48.818Z,19.04
2017-05-09T18:49:18.704Z,22.10
2017-05-09T18:51:48.071Z,21.42
2017-05-09T18:54:17.728Z,20.50
2017-05-09T18:56:46.709Z,20.20
2017-05-09T18:59:15.699Z,19.38
2017-05-09T19:01:44.771Z,22.94
2017-05-09T19:04:14.053Z,17.96
2017-05-09T19:06:43.328Z,21.02
2017-05-09T19:09:12.661Z,22.98
2017-05-09T19:11:41.625Z,23.50
2017-05-09T19:14:10.614Z,19.68
2017-05-09T19:16:39.700Z,25.04
2017-05-09T19:19:08.693Z,22.38
2017-05-09T19:21:38.178Z,33.02
2017-05-09T19:24:07.279Z,44.32
2017-05-09T19:26:35.850Z,22.40
2017-05-09T19:29:05.304Z,23.52
2017-05-09T19:31:34.350Z,22.76
2017-05-09T19:34:03.654Z,21.14
2017-05-09T19:36:32.236Z,30.12
2017-05-09T19:39:01.875Z,28.58
2017-05-09T19:41:30.722Z,27.08
2017-05-09T19:43:59.754Z,26.02
2017-05-09T19:46:28.745Z,26.70
2017-05-09T19:48:57.855Z,28.76
2017-05-09T19:51:26.751Z,29.92
2017-05-09T19:53:55.695Z,32.60
2017-05-09T19:56:24.951Z,31.96
2017-05-09T19:58:54.037Z,26.18
2017-05-09T20:01:23.220Z,27.24
2017-05-09T20:03:52.152Z,30.44
2017-05-09T20:06:21.191Z,27.56
2017-05-09T20:08:50.857Z,27.34
2017-05-09T20:11:19.835Z,33.34
2017-05-09T20:13:48.773Z,38.44
2017-05-09T20:16:18.102Z,30.98
2017-05-09T20:18:47.443Z,27.54
2017-05-09T20:21:17.467Z,31.10
2017-05-09T20:23:46.533Z,26.98
2017-05-09T20:26:15.187Z,26.22
2017-05-09T20:28:44.532Z,27.06
2017-05-09T20:31:13.102Z,26.20
2017-05-09T20:33:41.802Z,32.88
2017-05-09T20:36:10.420Z,37.20
2017-05-09T20:38:40.303Z,29.68
2017-05-09T20:41:09.379Z,25.82
2017-05-09T20:43:38.907Z,27.54
2017-05-09T20:46:08.038Z,27.48
2017-05-09T20:48:37.352Z,36.78
2017-05-09T20:51:06.480Z,24.90
2017-05-09T20:53:36.038Z,25.76
2017-05-09T20:56:04.952Z,29.50
2017-05-09T20:58:33.493Z,29.72
2017-05-09T21:01:02.235Z,28.16
2017-05-09T21:03:30.503Z,29.96
2017-05-09T21:05:58.609Z,26.52
2017-05-09T21:08:26.680Z,26.63
2017-05-09T21:10:54.645Z,25.84
2017-05-09T21:13:22.684Z,27.62
2017-05-09T21:15:50.239Z,26.70
2017-05-09T21:18:18.556Z,22.83
2017-05-09T21:20:46.546Z,26.67
2017-05-09T21:23:14.473Z,26.52
2017-05-09T21:25:42.425Z,27.25
2017-05-09T21:28:10.751Z,31.40
2017-05-09T21:30:38.680Z,42.06
2017-05-09T21:33:06.647Z,28.65
2017-05-09T21:35:34.968Z,26.86
2017-05-09T21:38:02.912Z,25.60
2017-05-09T21:40:30.876Z,25.46
2017-05-09T21:42:58.831Z,25.87
2017-05-09T21:45:27.160Z,27.37
2017-05-09T21:47:54.728Z,24.50
2017-05-09T21:50:22.292Z,32.82
2017-05-09T21:52:50.248Z,30.33
2017-05-09T21:55:18.216Z,23.93
2017-05-09T21:57:45.792Z,24.45
2017-05-09T22:00:13.728Z,26.48
2017-05-09T22:02:41.685Z,19.02
2017-05-09T22:05:10.031Z,30.84
2017-05-09T22:07:37.984Z,24.50
2017-05-09T22:10:05.941Z,35.68
2017-05-09T22:12:33.909Z,26.87
2017-05-09T22:15:01.854Z,32.17
2017-05-09T22:17:29.387Z,34.17
2017-05-09T22:19:57.363Z,34.65
2017-05-09T22:22:25.668Z,33.00
2017-05-09T22:24:53.217Z,23.40
2017-05-09T22:27:21.185Z,34.78
2017-05-09T22:29:49.496Z,23.68
2017-05-09T22:32:17.467Z,27.07
2017-05-09T22:34:45.410Z,22.80
2017-05-09T22:37:13.345Z,28.86
2017-05-09T22:39:41.282Z,23.07
2017-05-09T22:42:09.247Z,31.23
2017-05-09T22:44:37.191Z,24.55
2017-05-09T22:47:04.740Z,28.42
2017-05-09T22:49:33.077Z,26.92
2017-05-09T22:52:01.016Z,23.43
2017-05-09T22:54:28.960Z,30.37
2017-05-09T22:56:57.288Z,29.62
2017-05-09T22:59:25.239Z,23.08
2017-05-09T23:01:53.168Z,21.43
2017-05-09T23:04:20.759Z,24.25
2017-05-09T23:06:48.691Z,24.80
2017-05-09T23:09:17.042Z,26.32
2017-05-09T23:11:45.008Z,24.45
2017-05-09T23:14:12.944Z,25.08
2017-05-09T23:16:40.880Z,33.37
2017-05-09T23:19:08.848Z,31.83
2017-05-09T23:21:36.784Z,24.27
2017-05-09T23:24:04.324Z,32.93
2017-05-09T23:26:31.891Z,24.10
2017-05-09T23:28:59.436Z,24.02
2017-05-09T23:31:26.976Z,25.28
2017-05-09T23:33:54.546Z,21.95
2017-05-09T23:36:22.847Z,29.07
2017-05-09T23:38:50.783Z,27.68
2017-05-09T23:41:18.817Z,21.42
2017-05-09T23:43:46.762Z,22.02
2017-05-09T23:46:14.288Z,21.07
2017-05-09T23:48:42.629Z,25.60
2017-05-09T23:51:10.564Z,24.28
2017-05-09T23:53:38.496Z,22.75
2017-05-09T23:56:06.872Z,30.28
2017-05-09T23:58:34.816Z,30.10
